Surface observations / UK / EGOM

Quebec | Canada | USA | France | UK | Europe | Elsewhere

Display: Info & Location for EGOM | Help decoding METAR


Raw surface observations for station EGOM
EGOM 081450Z AUTO 26011KT 0250 FG OVC001/// 08/08 Q1018=
EGOM 081350Z AUTO 27009KT 5000 BR OVC002/// 09/09 Q1018=
EGOM 081250Z AUTO 26012KT 6000 OVC002/// 09/09 Q1017=
EGOM 081150Z AUTO 28010KT 2900 BR BKN001/// SCT060/// 09/09 Q1017 RERA=
EGOM 081050Z AUTO 27009KT 9999 -RA FEW002/// BKN060/// 10/10 Q1017=
EGOM 080950Z AUTO 30005KT 2400 RA BKN002/// SCT005/// BKN009/// 10/10 Q1017=
EGOM 080850Z AUTO 23005KT 0100 -SHRA VV/// 10/10 Q1017=
EGOM 080750Z AUTO 25015KT 0200 FG BKN001/// BKN008/// 10/10 Q1016=
EGOM 080650Z AUTO 25011KT 9999 OVC007/// 09/09 Q1016=
EGOM 080550Z AUTO 24012KT 9999 FEW002/// BKN007/// 09/09 Q1017=
EGOM 080450Z AUTO 24015KT 2600 OVC001/// 09/09 Q1017=
EGOM 080350Z AUTO 25012KT 0100 FG VV/// 09/09 Q1017=
EGOM 080250Z AUTO 25015KT 0100 FG VV/// 10/10 Q1017=
EGOM 080150Z AUTO 26019KT 1400 OVC001/// 10/10 Q1016=
EGOM 080050Z AUTO 25020KT 0300 FG VV/// 10/10 Q1016=
EGOM 072350Z AUTO 25022G33KT 0200 FG VV/// 11/11 Q1016=
EGOM 072250Z AUTO 24025G35KT 2600 BR OVC001/// 11/11 Q1015=
EGOM 072150Z AUTO 25023KT 9999 OVC002/// 11/11 Q1015=
EGOM 072050Z AUTO 25025KT 9999 OVC002/// 12/12 Q1014=
EGOM 071950Z AUTO 25025G35KT 9999 OVC002/// 12/12 Q1014=
EGOM 071850Z AUTO 24031G41KT 9999 OVC001/// 12/12 Q1013=
EGOM 071750Z AUTO 24030G40KT 9999 OVC001/// 12/12 Q1013=
EGOM 071650Z AUTO 25032G44KT 9999 BKN002/// 12/12 Q1013 RERA=
EGOM 071550Z AUTO 24029G40KT 9999 BKN003/// BKN012/// 12/12 Q1012 RERA=